createdAt,value
2023-04-01T00:01:43.907Z,11.33
2023-04-01T00:04:18.081Z,11.31
2023-04-01T00:06:52.655Z,11.32
2023-04-01T00:09:25.875Z,11.33
2023-04-01T00:12:04.565Z,11.34
2023-04-01T00:14:38.054Z,11.36
2023-04-01T00:17:11.712Z,11.38
2023-04-01T00:19:44.682Z,11.37
2023-04-01T00:22:17.707Z,11.36
2023-04-01T00:24:50.692Z,11.35
2023-04-01T00:27:25.100Z,11.33
2023-04-01T00:29:58.489Z,11.31
2023-04-01T00:32:31.622Z,11.29
2023-04-01T00:35:05.385Z,11.26
2023-04-01T00:37:40.427Z,11.38
2023-04-01T00:40:26.918Z,11.32
2023-04-01T00:43:01.985Z,11.29
2023-04-01T00:45:37.151Z,11.27
2023-04-01T00:48:13.159Z,11.27
2023-04-01T00:50:50.967Z,11.23
2023-04-01T00:53:25.345Z,11.19
2023-04-01T00:56:03.483Z,11.18
2023-04-01T00:58:44.346Z,11.15
2023-04-01T01:01:17.681Z,11.13
2023-04-01T01:03:50.737Z,11.10
2023-04-01T01:06:40.982Z,11.08
2023-04-01T01:09:32.528Z,11.04
2023-04-01T01:12:12.367Z,10.99
2023-04-01T01:14:58.703Z,10.98
2023-04-01T01:17:45.372Z,10.96
2023-04-01T01:20:55.860Z,11.00
2023-04-01T01:23:59.971Z,11.01
2023-04-01T01:26:49.544Z,11.02
2023-04-01T01:30:01.689Z,11.05
2023-04-01T01:32:51.952Z,11.03
2023-04-01T01:35:30.410Z,11.01
2023-04-01T01:38:07.063Z,10.97
2023-04-01T01:40:44.970Z,10.90
2023-04-01T01:43:21.902Z,10.82
2023-04-01T01:45:58.187Z,10.76
2023-04-01T01:48:33.431Z,10.70
2023-04-01T01:51:08.091Z,10.64
2023-04-01T01:53:41.119Z,10.59
2023-04-01T01:56:15.045Z,10.53
2023-04-01T01:58:54.046Z,10.45
2023-04-01T02:01:32.051Z,10.40
2023-04-01T02:04:15.899Z,10.34
2023-04-01T02:06:56.806Z,10.29
2023-04-01T02:09:32.295Z,10.22
2023-04-01T02:12:08.047Z,10.16
2023-04-01T02:14:51.558Z,10.16
2023-04-01T02:17:28.837Z,10.16
2023-04-01T02:20:05.466Z,10.19
2023-04-01T02:22:43.658Z,10.22
2023-04-01T02:25:19.825Z,10.27
2023-04-01T02:27:53.759Z,10.33
2023-04-01T02:30:28.776Z,10.38
2023-04-01T02:33:02.622Z,10.42
2023-04-01T02:35:38.670Z,10.45
2023-04-01T02:38:13.089Z,10.47
2023-04-01T02:40:49.502Z,10.47
2023-04-01T02:43:22.502Z,10.47
2023-04-01T02:45:56.067Z,10.45
2023-04-01T02:48:29.079Z,10.42
2023-04-01T02:51:02.113Z,10.42
2023-04-01T02:53:36.525Z,10.38
2023-04-01T02:56:09.582Z,10.37
2023-04-01T02:58:42.570Z,10.35
2023-04-01T03:01:15.893Z,10.35
2023-04-01T03:03:48.907Z,10.37
2023-04-01T03:06:21.932Z,10.39
2023-04-01T03:08:56.542Z,10.39
2023-04-01T03:11:29.604Z,10.41
2023-04-01T03:14:02.614Z,10.43
2023-04-01T03:16:35.700Z,10.46
2023-04-01T03:19:08.821Z,10.45
2023-04-01T03:21:41.818Z,10.44
2023-04-01T03:24:16.329Z,10.45
2023-04-01T03:26:49.482Z,10.45
2023-04-01T03:29:22.806Z,10.45
2023-04-01T03:31:58.861Z,10.47
2023-04-01T03:34:31.918Z,10.47
2023-04-01T03:37:05.231Z,10.49
2023-04-01T03:39:39.906Z,10.52
2023-04-01T03:42:13.032Z,10.54
2023-04-01T03:44:46.254Z,10.53
2023-04-01T03:47:19.493Z,10.53
2023-04-01T03:49:52.493Z,10.52
2023-04-01T03:52:25.561Z,10.50
2023-04-01T03:54:59.996Z,10.49
2023-04-01T03:57:33.888Z,10.49
2023-04-01T04:00:16.485Z,10.47
2023-04-01T04:02:51.960Z,10.46
2023-04-01T04:05:31.246Z,10.45
2023-04-01T04:08:05.263Z,10.41
2023-04-01T04:10:40.937Z,10.36
2023-04-01T04:13:14.042Z,10.35
2023-04-01T04:15:54.626Z,10.31
2023-04-01T04:18:27.746Z,10.27
2023-04-01T04:21:01.027Z,10.24
2023-04-01T04:23:34.704Z,10.20
2023-04-01T04:26:11.105Z,10.14
2023-04-01T04:28:45.929Z,10.12
2023-04-01T04:31:22.398Z,10.11
2023-04-01T04:33:56.720Z,10.13
2023-04-01T04:36:29.807Z,10.15
2023-04-01T04:39:04.268Z,10.16
2023-04-01T04:41:40.387Z,10.21
2023-04-01T04:44:13.478Z,10.25
2023-04-01T04:46:46.595Z,10.30
2023-04-01T04:49:21.380Z,10.31
2023-04-01T04:51:54.528Z,10.32
2023-04-01T04:54:31.668Z,10.32
2023-04-01T04:57:08.162Z,10.30
2023-04-01T04:59:48.544Z,10.27
2023-04-01T05:02:45.054Z,10.26
2023-04-01T05:05:18.176Z,10.27
2023-04-01T05:07:51.175Z,10.29
2023-04-01T05:10:24.254Z,10.30
2023-04-01T05:12:58.642Z,10.32
2023-04-01T05:15:32.057Z,10.35
2023-04-01T05:18:05.609Z,10.41
2023-04-01T05:20:38.610Z,10.45
2023-04-01T05:23:12.457Z,10.49
2023-04-01T05:25:46.214Z,10.65
2023-04-01T05:28:21.554Z,10.58
2023-04-01T05:30:54.662Z,10.63
2023-04-01T05:33:30.510Z,10.65
2023-04-01T05:36:11.709Z,10.70
2023-04-01T05:38:46.861Z,10.75
2023-04-01T05:41:20.195Z,10.80
2023-04-01T05:43:54.573Z,10.84
2023-04-01T05:46:45.974Z,10.87
2023-04-01T05:49:30.208Z,10.93
2023-04-01T05:52:03.249Z,10.99
2023-04-01T05:54:37.626Z,11.05
2023-04-01T05:57:10.605Z,11.09
2023-04-01T05:59:45.598Z,11.13
2023-04-01T06:02:20.446Z,11.15
2023-04-01T06:05:04.319Z,11.18
2023-04-01T06:07:37.356Z,11.25
2023-04-01T06:10:16.313Z,11.33
2023-04-01T06:13:06.615Z,11.36
2023-04-01T06:15:45.542Z,11.35
2023-04-01T06:18:54.440Z,11.40
2023-04-01T06:21:58.641Z,11.39
2023-04-01T06:24:46.746Z,11.41
2023-04-01T06:27:34.796Z,11.45
2023-04-01T06:30:27.209Z,11.54
2023-04-01T06:33:16.518Z,11.66
2023-04-01T06:36:19.911Z,11.72
2023-04-01T06:39:12.259Z,11.72
2023-04-01T06:42:10.466Z,11.73
2023-04-01T06:44:56.503Z,11.67
2023-04-01T06:48:05.513Z,11.67
2023-04-01T06:51:30.900Z,11.62
2023-04-01T06:54:32.009Z,11.54
2023-04-01T06:57:36.681Z,11.54
2023-04-01T07:00:16.407Z,11.48
2023-04-01T07:02:59.247Z,11.46
2023-04-01T07:05:34.583Z,11.45
2023-04-01T07:08:14.356Z,11.48
2023-04-01T07:10:52.769Z,11.49
2023-04-01T07:13:53.284Z,11.52
2023-04-01T07:16:31.879Z,11.54
2023-04-01T07:19:10.898Z,11.58
2023-04-01T07:22:23.677Z,11.63
2023-04-01T07:25:26.658Z,11.78
2023-04-01T07:28:23.123Z,11.70
2023-04-01T07:31:17.948Z,11.72
2023-04-01T07:33:59.848Z,11.73
2023-04-01T07:36:39.323Z,11.70
2023-04-01T07:39:24.527Z,11.69
2023-04-01T07:42:41.980Z,11.68
2023-04-01T07:45:23.295Z,11.59
2023-04-01T07:48:08.919Z,11.54
2023-04-01T07:50:51.234Z,11.49
2023-04-01T07:53:33.755Z,11.44
2023-04-01T07:56:12.300Z,11.38
2023-04-01T07:59:18.672Z,11.35
2023-04-01T08:02:12.768Z,11.30
2023-04-01T08:04:59.769Z,11.29
2023-04-01T08:07:43.377Z,11.29
2023-04-01T08:10:46.289Z,11.29
2023-04-01T08:13:44.608Z,11.29
2023-04-01T08:16:37.465Z,11.27
2023-04-01T08:19:21.875Z,11.24
2023-04-01T08:21:59.818Z,11.26
2023-04-01T08:24:47.582Z,11.26
2023-04-01T08:27:36.359Z,11.31
2023-04-01T08:30:21.133Z,11.36
2023-04-01T08:32:59.215Z,11.37
2023-04-01T08:35:40.305Z,11.46
2023-04-01T08:38:19.907Z,11.61
2023-04-01T08:41:03.937Z,11.77
2023-04-01T08:44:14.715Z,11.95
2023-04-01T08:47:11.969Z,12.11
2023-04-01T08:50:08.406Z,12.26
2023-04-01T08:53:16.221Z,12.41
2023-04-01T08:56:07.253Z,12.58
2023-04-01T08:59:09.733Z,12.73
2023-04-01T09:01:55.597Z,12.79
2023-04-01T09:05:08.904Z,12.89
2023-04-01T09:07:54.522Z,12.89
2023-04-01T09:10:52.325Z,12.95
2023-04-01T09:14:09.449Z,12.95
2023-04-01T09:17:16.523Z,12.86
2023-04-01T09:20:07.844Z,12.78
2023-04-01T09:22:55.283Z,12.71
2023-04-01T09:25:55.961Z,12.70
2023-04-01T09:28:33.866Z,12.59
2023-04-01T09:31:23.128Z,12.54
2023-04-01T09:34:41.144Z,12.46
2023-04-01T09:37:24.004Z,12.37
2023-04-01T09:40:19.484Z,12.27
2023-04-01T09:43:35.422Z,12.17
2023-04-01T09:46:22.823Z,12.09
2023-04-01T09:49:38.222Z,12.18
2023-04-01T09:52:32.028Z,12.24
2023-04-01T09:55:38.195Z,12.31
2023-04-01T09:58:45.479Z,12.43
2023-04-01T10:01:47.888Z,12.56
2023-04-01T10:05:03.339Z,12.61
2023-04-01T10:08:16.600Z,12.61
2023-04-01T10:11:15.284Z,12.55
2023-04-01T10:14:13.143Z,12.49
2023-04-01T10:17:19.531Z,12.51
2023-04-01T10:20:20.997Z,12.54
2023-04-01T10:23:24.120Z,12.60
2023-04-01T10:26:37.028Z,12.68
2023-04-01T10:30:20.625Z,12.77
2023-04-01T10:33:27.961Z,12.77
2023-04-01T10:36:28.768Z,12.77
2023-04-01T10:39:28.014Z,12.86
2023-04-01T10:42:42.801Z,13.00
2023-04-01T10:46:40.240Z,13.25
2023-04-01T10:49:46.490Z,13.43
2023-04-01T10:52:59.687Z,13.50
2023-04-01T10:56:27.818Z,13.58
2023-04-01T11:00:05.034Z,13.58
2023-04-01T11:03:35.769Z,13.56
2023-04-01T11:06:59.650Z,13.72
2023-04-01T11:10:10.990Z,13.66
2023-04-01T11:13:44.206Z,13.71
2023-04-01T11:16:53.536Z,13.92
2023-04-01T11:20:03.283Z,14.37
2023-04-01T11:23:00.437Z,14.60
2023-04-01T11:26:02.032Z,14.73
2023-04-01T11:29:24.440Z,14.67
2023-04-01T11:32:09.779Z,14.50
2023-04-01T11:34:56.331Z,14.41
2023-04-01T11:37:44.857Z,14.39
2023-04-01T11:40:51.651Z,14.37
2023-04-01T11:43:51.416Z,14.45
2023-04-01T11:47:10.868Z,14.67
2023-04-01T11:50:14.484Z,14.82
2023-04-01T11:53:07.606Z,15.02
2023-04-01T11:55:52.517Z,15.27
2023-04-01T11:58:42.283Z,15.52
2023-04-01T12:01:45.480Z,15.69
2023-04-01T12:04:44.624Z,15.63
2023-04-01T12:07:27.216Z,15.51
2023-04-01T12:10:13.101Z,15.48
2023-04-01T12:13:01.241Z,15.53
2023-04-01T12:15:47.418Z,15.61
2023-04-01T12:18:27.664Z,15.84
2023-04-01T12:21:12.228Z,16.04
2023-04-01T12:24:17.622Z,16.43
2023-04-01T12:27:04.706Z,17.00
2023-04-01T12:29:51.707Z,17.38
2023-04-01T12:32:31.658Z,17.65
2023-04-01T12:35:21.147Z,17.94
2023-04-01T12:38:23.592Z,18.07
2023-04-01T12:41:21.931Z,18.05
2023-04-01T12:44:30.696Z,17.97
2023-04-01T12:47:20.526Z,18.07
2023-04-01T12:50:04.873Z,18.08
2023-04-01T12:52:53.815Z,18.15
2023-04-01T12:55:45.435Z,18.20
2023-04-01T12:59:01.035Z,18.21
2023-04-01T13:02:01.550Z,18.20
2023-04-01T13:04:56.126Z,18.20
2023-04-01T13:07:54.184Z,18.07
2023-04-01T13:10:40.818Z,17.91
2023-04-01T13:13:38.854Z,17.68
2023-04-01T13:16:18.608Z,17.34
2023-04-01T13:19:00.665Z,17.04
2023-04-01T13:21:46.718Z,16.78
2023-04-01T13:24:33.460Z,16.55
2023-04-01T13:27:16.747Z,16.31
2023-04-01T13:30:04.414Z,16.13
2023-04-01T13:32:45.653Z,16.00
2023-04-01T13:35:28.266Z,15.84
2023-04-01T13:38:18.136Z,15.69
2023-04-01T13:41:03.670Z,15.57
2023-04-01T13:43:41.757Z,15.40
2023-04-01T13:46:34.654Z,15.31
2023-04-01T13:49:28.974Z,15.22
2023-04-01T13:52:26.370Z,15.11
2023-04-01T13:55:27.469Z,15.00
2023-04-01T13:58:45.013Z,14.87
2023-04-01T14:01:27.864Z,14.65
2023-04-01T14:04:24.229Z,14.51
2023-04-01T14:07:08.597Z,14.30
2023-04-01T14:09:51.996Z,14.11
2023-04-01T14:12:32.166Z,13.90
2023-04-01T14:15:34.377Z,13.65
2023-04-01T14:18:39.591Z,13.38
2023-04-01T14:21:25.454Z,13.19
2023-04-01T14:24:27.690Z,13.06
2023-04-01T14:27:26.965Z,12.90
2023-04-01T14:30:29.566Z,12.76
2023-04-01T14:33:15.386Z,12.68
2023-04-01T14:36:05.046Z,12.67
2023-04-01T14:38:50.340Z,12.63
2023-04-01T14:41:36.642Z,12.55
2023-04-01T14:44:47.144Z,12.56
2023-04-01T14:47:33.548Z,12.51
2023-04-01T14:50:11.809Z,12.48
2023-04-01T14:52:51.330Z,12.49
2023-04-01T14:55:34.372Z,12.54
2023-04-01T14:58:12.854Z,12.54
2023-04-01T15:00:56.876Z,12.52
2023-04-01T15:03:32.911Z,12.59
2023-04-01T15:06:32.952Z,12.53
2023-04-01T15:09:16.619Z,12.46
2023-04-01T15:12:03.267Z,12.45
2023-04-01T15:15:02.745Z,12.50
2023-04-01T15:17:59.439Z,12.50
2023-04-01T15:20:47.775Z,12.50
2023-04-01T15:23:33.556Z,12.51
2023-04-01T15:26:17.776Z,12.52
2023-04-01T15:29:06.738Z,12.53
2023-04-01T15:31:46.675Z,12.53
2023-04-01T15:34:28.478Z,12.52
2023-04-01T15:37:10.114Z,12.51
2023-04-01T15:39:56.922Z,12.49
2023-04-01T15:42:49.871Z,12.45
2023-04-01T15:45:38.316Z,12.39
2023-04-01T15:48:30.695Z,12.32
2023-04-01T15:51:45.477Z,12.28
2023-04-01T15:54:28.541Z,12.21
2023-04-01T15:57:17.632Z,12.15
2023-04-01T16:00:12.018Z,12.14
2023-04-01T16:02:52.871Z,12.09
2023-04-01T16:05:36.297Z,12.05
2023-04-01T16:08:33.706Z,12.02
2023-04-01T16:11:21.646Z,11.99
2023-04-01T16:14:07.032Z,11.98
2023-04-01T16:16:54.176Z,11.97
2023-04-01T16:19:45.649Z,11.96
2023-04-01T16:22:24.187Z,11.94
2023-04-01T16:25:07.950Z,11.94
2023-04-01T16:27:48.260Z,11.91
2023-04-01T16:30:39.068Z,11.89
2023-04-01T16:33:19.977Z,11.82
2023-04-01T16:36:00.422Z,11.81
2023-04-01T16:38:39.858Z,11.77
2023-04-01T16:41:21.121Z,11.76
2023-04-01T16:43:58.364Z,11.75
2023-04-01T16:46:36.642Z,11.70
2023-04-01T16:49:34.067Z,11.72
2023-04-01T16:52:18.366Z,11.68
2023-04-01T16:54:59.020Z,11.61
2023-04-01T16:57:45.869Z,11.55
2023-04-01T17:00:27.483Z,11.52
2023-04-01T17:03:13.611Z,11.48
2023-04-01T17:06:09.659Z,11.44
2023-04-01T17:09:04.341Z,11.40
2023-04-01T17:11:43.511Z,11.34
2023-04-01T17:14:25.980Z,11.31
2023-04-01T17:17:18.921Z,11.28
2023-04-01T17:20:07.080Z,11.19
2023-04-01T17:22:47.812Z,11.12
2023-04-01T17:25:44.853Z,11.07
2023-04-01T17:28:35.653Z,10.99
2023-04-01T17:31:15.589Z,10.92
2023-04-01T17:34:19.413Z,10.91
2023-04-01T17:37:13.786Z,10.86
2023-04-01T17:39:54.097Z,10.77
2023-04-01T17:42:42.959Z,10.77
2023-04-01T17:45:26.216Z,10.76
2023-04-01T17:48:10.510Z,10.76
2023-04-01T17:51:00.257Z,10.72
2023-04-01T17:53:46.946Z,10.73
2023-04-01T17:56:31.904Z,10.76
2023-04-01T17:59:18.140Z,10.77
2023-04-01T18:02:01.725Z,10.76
2023-04-01T18:04:52.059Z,10.75
2023-04-01T18:07:56.552Z,10.76
2023-04-01T18:10:36.575Z,10.71
2023-04-01T18:13:43.484Z,10.73
2023-04-01T18:16:32.408Z,10.71
2023-04-01T18:19:16.148Z,10.66
2023-04-01T18:21:53.186Z,10.63
2023-04-01T18:24:33.205Z,10.60
2023-04-01T18:27:14.186Z,10.54
2023-04-01T18:29:53.606Z,10.54
2023-04-01T18:32:46.195Z,10.52
2023-04-01T18:35:29.412Z,10.46
2023-04-01T18:38:08.516Z,10.43
2023-04-01T18:40:49.181Z,10.42
2023-04-01T18:43:38.732Z,10.41
2023-04-01T18:46:21.445Z,10.39
2023-04-01T18:49:08.356Z,10.38
2023-04-01T18:51:50.001Z,10.35
2023-04-01T18:54:30.883Z,10.33
2023-04-01T18:57:14.423Z,10.33
2023-04-01T18:59:52.923Z,10.30
2023-04-01T19:02:33.702Z,10.26
2023-04-01T19:05:14.292Z,10.24
2023-04-01T19:07:50.172Z,10.22
2023-04-01T19:10:38.966Z,10.23
2023-04-01T19:13:21.783Z,10.25
2023-04-01T19:16:02.984Z,10.24
2023-04-01T19:18:53.742Z,10.26
2023-04-01T19:21:36.165Z,10.22
2023-04-01T19:24:47.896Z,10.23
2023-04-01T19:27:32.703Z,10.13
2023-04-01T19:30:30.545Z,10.11
2023-04-01T19:33:19.513Z,10.08
2023-04-01T19:36:02.865Z,10.07
2023-04-01T19:38:41.313Z,10.07
2023-04-01T19:41:27.279Z,10.02
2023-04-01T19:44:11.355Z,9.99
2023-04-01T19:46:46.543Z,10.07
2023-04-01T19:49:34.893Z,9.92
2023-04-01T19:52:18.235Z,9.81
2023-04-01T19:54:59.306Z,9.77
2023-04-01T19:57:42.982Z,9.73
2023-04-01T20:00:25.931Z,9.70
2023-04-01T20:03:20.945Z,9.69
2023-04-01T20:06:11.457Z,9.67
2023-04-01T20:08:50.772Z,9.62
2023-04-01T20:11:42.846Z,9.65
2023-04-01T20:14:24.841Z,9.61
2023-04-01T20:17:20.993Z,9.64
2023-04-01T20:20:01.189Z,9.61
2023-04-01T20:22:55.896Z,9.60
2023-04-01T20:25:34.683Z,9.58
2023-04-01T20:28:16.360Z,9.60
2023-04-01T20:31:24.875Z,9.62
2023-04-01T20:34:35.374Z,9.60
2023-04-01T20:37:26.261Z,9.55
2023-04-01T20:40:29.970Z,9.52
2023-04-01T20:43:30.638Z,9.49
2023-04-01T20:46:10.021Z,9.45
2023-04-01T20:49:10.084Z,9.45
2023-04-01T20:51:48.954Z,9.43
2023-04-01T20:54:42.430Z,9.43
2023-04-01T20:57:24.114Z,9.42
2023-04-01T21:00:22.083Z,9.41
2023-04-01T21:03:12.606Z,9.36
2023-04-01T21:06:16.679Z,9.33
2023-04-01T21:09:04.304Z,9.29
2023-04-01T21:11:46.361Z,9.27
2023-04-01T21:14:37.638Z,9.25
2023-04-01T21:17:18.586Z,9.19
2023-04-01T21:20:07.498Z,9.16
2023-04-01T21:23:05.343Z,9.16
2023-04-01T21:26:01.052Z,9.14
2023-04-01T21:28:47.446Z,9.08
2023-04-01T21:31:43.270Z,9.09
2023-04-01T21:34:42.911Z,9.02
2023-04-01T21:37:35.622Z,8.93
2023-04-01T21:40:41.565Z,8.92
2023-04-01T21:43:35.938Z,8.84
2023-04-01T21:46:32.641Z,8.86
2023-04-01T21:49:33.868Z,8.74
2023-04-01T21:52:35.362Z,8.69
2023-04-01T21:55:49.960Z,8.67
2023-04-01T21:58:52.602Z,8.66
2023-04-01T22:01:57.766Z,8.65
2023-04-01T22:04:45.285Z,8.56
2023-04-01T22:07:22.035Z,8.50
2023-04-01T22:10:04.856Z,8.47
2023-04-01T22:12:48.086Z,8.45
2023-04-01T22:15:30.586Z,8.45
2023-04-01T22:18:16.930Z,8.44
2023-04-01T22:20:58.369Z,8.46
2023-04-01T22:23:44.813Z,8.46
2023-04-01T22:26:29.059Z,8.46
2023-04-01T22:29:07.787Z,8.44
2023-04-01T22:31:47.281Z,8.40
2023-04-01T22:34:28.370Z,8.39
2023-04-01T22:37:06.159Z,8.39
2023-04-01T22:39:59.225Z,8.40
2023-04-01T22:42:44.319Z,8.37
2023-04-01T22:45:47.209Z,8.39
2023-04-01T22:48:26.498Z,8.33
2023-04-01T22:51:07.892Z,8.30
2023-04-01T22:53:53.381Z,8.30
2023-04-01T22:56:33.727Z,8.31
2023-04-01T22:59:13.692Z,8.30
2023-04-01T23:01:52.709Z,8.31
2023-04-01T23:04:31.713Z,8.31
2023-04-01T23:07:17.471Z,8.33
2023-04-01T23:09:51.308Z,8.30
2023-04-01T23:12:27.834Z,8.41
2023-04-01T23:15:02.865Z,8.32
2023-04-01T23:17:47.379Z,8.33
2023-04-01T23:20:28.628Z,8.30
2023-04-01T23:23:14.278Z,8.29
2023-04-01T23:25:57.012Z,8.30
2023-04-01T23:28:47.401Z,8.34
2023-04-01T23:31:35.287Z,8.33
2023-04-01T23:34:25.041Z,8.35
2023-04-01T23:37:00.984Z,8.32
2023-04-01T23:39:36.776Z,8.32
2023-04-01T23:42:17.163Z,8.32
2023-04-01T23:44:55.630Z,8.31
2023-04-01T23:47:33.726Z,8.28
2023-04-01T23:50:12.895Z,8.28
2023-04-01T23:52:49.276Z,8.25
2023-04-01T23:55:26.497Z,8.26
2023-04-01T23:58:18.500Z,8.32
